createdAt,value
2024-04-11T00:03:25.309Z,7.00
2024-04-11T00:07:33.409Z,7.00
2024-04-11T00:11:41.108Z,7.00
2024-04-11T00:15:51.802Z,7.20
2024-04-11T00:19:59.236Z,7.10
2024-04-11T00:24:10.013Z,7.00
2024-04-11T00:28:17.349Z,7.60
2024-04-11T00:32:26.284Z,7.40
2024-04-11T00:36:34.236Z,7.50
2024-04-11T00:40:41.903Z,7.50
2024-04-11T00:44:49.408Z,7.50
2024-04-11T00:48:57.715Z,7.10
2024-04-11T00:53:06.102Z,6.50
2024-04-11T00:57:16.837Z,6.90
2024-04-11T01:01:26.731Z,7.00
2024-04-11T01:05:35.922Z,7.10
2024-04-11T01:09:46.530Z,7.40
2024-04-11T01:13:54.607Z,10.30
2024-04-11T01:18:03.841Z,14.20
2024-04-11T01:22:12.504Z,12.90
2024-04-11T01:26:20.136Z,12.90
2024-04-11T01:30:29.388Z,11.70
2024-04-11T01:34:36.901Z,9.20
2024-04-11T01:38:46.626Z,7.70
2024-04-11T01:42:55.392Z,6.70
2024-04-11T01:47:02.980Z,6.40
2024-04-11T01:51:11.486Z,6.20
2024-04-11T01:55:19.072Z,6.70
2024-04-11T01:59:27.430Z,6.90
2024-04-11T02:03:35.557Z,6.70
2024-04-11T02:07:44.021Z,6.60
2024-04-11T02:11:55.118Z,6.40
2024-04-11T02:16:06.622Z,6.80
2024-04-11T02:20:14.496Z,6.30
2024-04-11T02:24:23.667Z,6.30
2024-04-11T02:28:31.131Z,6.30
2024-04-11T02:32:42.868Z,5.60
2024-04-11T02:36:50.405Z,5.80
2024-04-11T02:40:59.284Z,5.90
2024-04-11T02:45:16.233Z,5.90
2024-04-11T02:49:24.500Z,6.40
2024-04-11T02:53:33.688Z,6.60
2024-04-11T02:57:40.919Z,7.00
2024-04-11T03:01:52.420Z,7.00
2024-04-11T03:06:08.669Z,6.90
2024-04-11T03:10:16.803Z,8.00
2024-04-11T03:14:24.652Z,6.70
2024-04-11T03:18:36.093Z,6.70
2024-04-11T03:22:47.963Z,6.70
2024-04-11T03:26:55.662Z,6.90
2024-04-11T03:31:06.128Z,7.00
2024-04-11T03:35:13.440Z,6.60
2024-04-11T03:39:21.449Z,6.10
2024-04-11T03:43:29.560Z,6.40
2024-04-11T03:47:40.274Z,6.40
2024-04-11T03:51:51.350Z,6.10
2024-04-11T03:55:59.478Z,6.20
2024-04-11T04:00:08.969Z,6.70
2024-04-11T04:04:19.152Z,7.20
2024-04-11T04:08:26.536Z,7.90
2024-04-11T04:12:34.545Z,7.20
2024-04-11T04:16:43.293Z,7.00
2024-04-11T04:20:59.411Z,6.70
2024-04-11T04:25:12.951Z,6.20
2024-04-11T04:29:20.613Z,6.30
2024-04-11T04:33:28.936Z,6.50
2024-04-11T04:37:36.794Z,7.20
2024-04-11T04:41:44.933Z,7.00
2024-04-11T04:45:53.827Z,6.80
2024-04-11T04:50:01.727Z,7.30
2024-04-11T04:54:13.289Z,7.20
2024-04-11T04:58:21.999Z,7.30
2024-04-11T05:02:30.190Z,7.80
2024-04-11T05:06:38.898Z,8.70
2024-04-11T05:10:55.575Z,7.90
2024-04-11T05:15:13.607Z,6.90
2024-04-11T05:19:22.018Z,8.50
2024-04-11T05:23:34.196Z,8.00
2024-04-11T05:27:42.648Z,7.60
2024-04-11T05:31:50.416Z,8.40
2024-04-11T05:35:59.958Z,8.80
2024-04-11T05:40:09.106Z,9.20
2024-04-11T05:44:17.198Z,7.70
2024-04-11T05:48:25.343Z,8.00
2024-04-11T05:52:32.996Z,7.30
2024-04-11T05:56:40.313Z,7.40
2024-04-11T06:00:50.928Z,8.80
2024-04-11T06:04:58.016Z,8.10
2024-04-11T06:09:09.594Z,7.00
2024-04-11T06:13:20.514Z,7.50
2024-04-11T06:17:28.837Z,7.80
2024-04-11T06:21:46.447Z,7.10
2024-04-11T06:25:53.904Z,7.00
2024-04-11T06:30:04.208Z,6.80
2024-04-11T06:34:12.934Z,6.50
2024-04-11T06:38:22.259Z,6.30
2024-04-11T06:42:30.914Z,6.00
2024-04-11T06:46:41.372Z,5.50
2024-04-11T06:50:49.354Z,6.00
2024-04-11T06:54:57.388Z,5.90
2024-04-11T06:59:07.059Z,5.50
2024-04-11T07:03:18.224Z,7.00
2024-04-11T07:07:28.405Z,6.40
2024-04-11T07:11:41.425Z,5.80
2024-04-11T07:15:51.285Z,5.60
2024-04-11T07:19:59.672Z,5.20
2024-04-11T07:24:09.258Z,5.10
2024-04-11T07:28:17.327Z,4.70
2024-04-11T07:32:25.705Z,5.10
2024-04-11T07:36:34.293Z,3.70
2024-04-11T07:40:55.749Z,4.50
2024-04-11T07:45:07.479Z,4.20
2024-04-11T07:49:15.586Z,3.60
2024-04-11T07:53:27.578Z,2.80
2024-04-11T07:57:34.952Z,3.10
2024-04-11T08:01:42.904Z,2.90
2024-04-11T08:05:50.871Z,2.90
2024-04-11T08:09:59.936Z,3.50
2024-04-11T08:14:08.295Z,2.70
2024-04-11T08:18:16.730Z,3.00
2024-04-11T08:22:26.142Z,2.90
2024-04-11T08:26:34.821Z,2.20
2024-04-11T08:30:42.432Z,2.80
2024-04-11T08:34:50.550Z,2.80
2024-04-11T08:38:59.832Z,2.30
2024-04-11T08:43:11.745Z,2.30
2024-04-11T08:47:19.392Z,2.10
2024-04-11T08:51:27.090Z,2.00
2024-04-11T08:55:36.673Z,2.10
2024-04-11T08:59:47.438Z,2.30
2024-04-11T09:03:55.312Z,2.10
2024-04-11T09:08:02.707Z,1.90
2024-04-11T09:12:16.225Z,2.10
2024-04-11T09:16:29.050Z,2.10
2024-04-11T09:20:37.300Z,2.40
2024-04-11T09:24:46.621Z,2.10
2024-04-11T09:28:55.245Z,2.50
2024-04-11T09:33:08.500Z,2.60
2024-04-11T09:37:18.637Z,2.10
2024-04-11T09:41:27.707Z,2.30
2024-04-11T09:45:38.285Z,1.70
2024-04-11T09:49:55.465Z,1.60
2024-04-11T09:54:05.763Z,1.70
2024-04-11T09:58:15.104Z,1.70
2024-04-11T10:02:26.426Z,1.60
2024-04-11T10:06:36.940Z,1.70
2024-04-11T10:10:44.329Z,1.90
2024-04-11T10:15:00.873Z,1.80
2024-04-11T10:19:14.261Z,1.70
2024-04-11T10:23:31.361Z,1.80
2024-04-11T10:27:39.477Z,1.60
2024-04-11T10:31:49.040Z,2.00
2024-04-11T10:35:58.326Z,1.50
2024-04-11T10:40:11.702Z,1.50
2024-04-11T10:44:19.172Z,1.60
2024-04-11T10:48:27.136Z,1.50
2024-04-11T10:52:35.241Z,1.70
2024-04-11T10:56:45.298Z,1.60
2024-04-11T11:01:13.476Z,1.70
2024-04-11T11:05:21.361Z,1.50
2024-04-11T11:09:30.604Z,1.50
2024-04-11T11:13:38.032Z,1.70
2024-04-11T11:17:46.745Z,1.50
2024-04-11T11:22:00.820Z,1.70
2024-04-11T11:26:12.978Z,1.70
2024-04-11T11:30:20.185Z,1.30
2024-04-11T11:34:31.587Z,1.70
2024-04-11T11:38:39.673Z,1.40
2024-04-11T11:42:47.843Z,1.50
2024-04-11T11:47:07.356Z,1.60
2024-04-11T11:51:14.672Z,1.70
2024-04-11T11:55:28.074Z,1.60
2024-04-11T11:59:36.226Z,1.60
2024-04-11T12:03:45.720Z,1.60
2024-04-11T12:07:55.627Z,1.50
2024-04-11T12:12:23.142Z,1.70
2024-04-11T12:16:40.887Z,1.50
2024-04-11T12:20:48.980Z,1.60
2024-04-11T12:24:59.640Z,1.80
2024-04-11T12:29:07.215Z,1.60
2024-04-11T12:33:17.888Z,1.40
2024-04-11T12:37:26.805Z,1.60
2024-04-11T12:41:34.239Z,1.80
2024-04-11T12:45:41.421Z,1.60
2024-04-11T12:49:49.874Z,1.80
2024-04-11T12:53:57.160Z,1.50
2024-04-11T12:58:08.134Z,1.60
2024-04-11T13:02:20.648Z,2.20
2024-04-11T13:06:38.502Z,1.90
2024-04-11T13:10:50.305Z,1.70
2024-04-11T13:15:10.117Z,1.70
2024-04-11T13:19:20.598Z,2.10
2024-04-11T13:23:30.693Z,1.50
2024-04-11T13:27:40.327Z,2.20
2024-04-11T13:31:50.716Z,1.30
2024-04-11T13:36:05.502Z,1.70
2024-04-11T13:40:45.906Z,1.90
2024-04-11T13:44:55.250Z,1.60
2024-04-11T13:49:21.651Z,1.70
2024-04-11T13:53:33.748Z,1.60
2024-04-11T13:57:42.483Z,1.80
2024-04-11T14:01:52.665Z,1.70
2024-04-11T14:06:23.945Z,1.60
2024-04-11T14:10:34.392Z,1.40
2024-04-11T14:14:41.599Z,1.80
2024-04-11T14:18:50.107Z,1.90
2024-04-11T14:23:16.784Z,1.90
2024-04-11T14:27:30.651Z,1.80
2024-04-11T14:31:40.485Z,2.10
2024-04-11T14:36:07.789Z,1.70
2024-04-11T14:40:15.702Z,1.60
2024-04-11T14:44:23.358Z,1.80
2024-04-11T14:48:38.068Z,1.90
2024-04-11T14:52:46.349Z,2.00
2024-04-11T14:56:56.659Z,1.90
2024-04-11T15:01:16.263Z,1.80
2024-04-11T15:05:23.654Z,1.70
2024-04-11T15:09:35.884Z,2.00
2024-04-11T15:13:45.691Z,1.60
2024-04-11T15:17:59.651Z,2.20
2024-04-11T15:22:07.797Z,1.80
2024-04-11T15:26:18.137Z,1.80
2024-04-11T15:30:47.153Z,1.60
2024-04-11T15:34:55.213Z,1.60
2024-04-11T15:39:02.579Z,1.70
2024-04-11T15:43:23.279Z,1.90
2024-04-11T15:47:34.996Z,1.80
2024-04-11T15:51:48.593Z,1.60
2024-04-11T15:55:56.211Z,1.90
2024-04-11T16:00:12.477Z,2.00
2024-04-11T16:04:24.956Z,1.90
2024-04-11T16:08:36.519Z,2.00
2024-04-11T16:12:44.622Z,1.70
2024-04-11T16:16:56.746Z,1.80
2024-04-11T16:21:04.645Z,1.70
2024-04-11T16:25:20.965Z,1.50
2024-04-11T16:29:31.520Z,1.70
2024-04-11T16:33:43.153Z,1.90
2024-04-11T16:38:09.131Z,1.80
2024-04-11T16:42:24.156Z,1.70
2024-04-11T16:46:38.648Z,2.00
2024-04-11T16:50:50.218Z,1.80
2024-04-11T16:55:03.183Z,1.80
2024-04-11T16:59:10.749Z,1.80
2024-04-11T17:03:21.722Z,1.90
2024-04-11T17:07:37.966Z,2.50
2024-04-11T17:11:46.986Z,2.30
2024-04-11T17:16:16.878Z,2.10
2024-04-11T17:20:44.056Z,1.90
2024-04-11T17:24:53.582Z,2.40
2024-04-11T17:29:05.203Z,2.10
2024-04-11T17:33:21.326Z,2.30
2024-04-11T17:37:41.046Z,2.60
2024-04-11T17:41:59.855Z,3.70
2024-04-11T17:46:08.565Z,4.20
2024-04-11T17:50:15.610Z,3.80
2024-04-11T17:54:23.628Z,4.30
2024-04-11T17:58:32.594Z,3.80
2024-04-11T18:02:47.811Z,3.10
2024-04-11T18:06:55.991Z,3.00
2024-04-11T18:11:08.678Z,2.90
2024-04-11T18:15:19.119Z,3.50
2024-04-11T18:19:30.262Z,3.70
2024-04-11T18:23:38.156Z,3.40
2024-04-11T18:27:47.476Z,3.50
2024-04-11T18:31:54.734Z,3.40
2024-04-11T18:36:15.850Z,3.50
2024-04-11T18:40:38.024Z,4.30
2024-04-11T18:44:51.943Z,4.00
2024-04-11T18:49:18.765Z,4.30
2024-04-11T18:53:26.898Z,4.30
2024-04-11T18:57:36.410Z,4.40
2024-04-11T19:01:47.757Z,5.60
2024-04-11T19:05:59.326Z,7.20
2024-04-11T19:10:15.630Z,5.80
2024-04-11T19:14:26.197Z,6.10
2024-04-11T19:18:35.876Z,4.50
2024-04-11T19:22:47.242Z,4.70
2024-04-11T19:26:55.090Z,4.70
2024-04-11T19:31:03.744Z,5.90
2024-04-11T19:35:12.026Z,6.20
2024-04-11T19:39:20.872Z,6.40
2024-04-11T19:43:32.305Z,6.90
2024-04-11T19:47:44.704Z,6.40
2024-04-11T19:51:58.579Z,6.20
2024-04-11T19:56:19.355Z,6.60
2024-04-11T20:00:45.534Z,6.50
2024-04-11T20:05:01.221Z,6.50
2024-04-11T20:09:14.415Z,6.20
2024-04-11T20:13:35.855Z,6.10
2024-04-11T20:17:48.273Z,6.40
2024-04-11T20:21:56.062Z,6.50
2024-04-11T20:26:11.973Z,6.40
2024-04-11T20:30:21.572Z,6.50
2024-04-11T20:34:30.401Z,6.10
2024-04-11T20:38:38.111Z,5.30
2024-04-11T20:43:02.994Z,5.70
2024-04-11T20:47:28.355Z,6.30
2024-04-11T20:51:53.953Z,6.00
2024-04-11T20:56:19.490Z,6.10
2024-04-11T21:00:46.268Z,5.20
2024-04-11T21:05:11.115Z,5.90
2024-04-11T21:09:36.358Z,5.90
2024-04-11T21:14:01.197Z,6.30
2024-04-11T21:18:27.424Z,6.30
2024-04-11T21:22:53.820Z,6.30
2024-04-11T21:27:19.145Z,6.80
2024-04-11T21:31:44.774Z,7.20
2024-04-11T21:35:55.222Z,7.10
2024-04-11T21:40:14.643Z,7.20
2024-04-11T21:44:27.760Z,7.30
2024-04-11T21:48:41.790Z,7.30
2024-04-11T21:52:54.321Z,7.60
2024-04-11T21:57:06.008Z,7.00
2024-04-11T22:01:18.469Z,7.10
2024-04-11T22:05:28.700Z,7.90
2024-04-11T22:09:41.561Z,8.50
2024-04-11T22:13:54.000Z,8.90
2024-04-11T22:18:20.724Z,9.10
2024-04-11T22:22:30.477Z,8.40
2024-04-11T22:26:44.104Z,8.10
2024-04-11T22:31:07.183Z,8.20
2024-04-11T22:35:18.808Z,8.30
2024-04-11T22:39:37.074Z,7.70
2024-04-11T22:43:46.235Z,8.50
2024-04-11T22:47:54.697Z,9.00
2024-04-11T22:52:03.549Z,8.60
2024-04-11T22:56:22.162Z,8.00
2024-04-11T23:00:35.391Z,8.90
2024-04-11T23:04:47.522Z,7.50
2024-04-11T23:09:08.277Z,8.50
2024-04-11T23:13:20.223Z,8.10
2024-04-11T23:17:38.136Z,7.70
2024-04-11T23:21:59.860Z,7.30
2024-04-11T23:26:14.528Z,7.60
2024-04-11T23:30:29.466Z,7.80
2024-04-11T23:34:39.522Z,7.30
2024-04-11T23:38:49.149Z,6.50
2024-04-11T23:42:57.172Z,7.80
2024-04-11T23:47:05.252Z,7.20
2024-04-11T23:51:21.802Z,6.40
2024-04-11T23:55:31.602Z,6.80
2024-04-11T23:59:41.139Z,6.50
